createdAt,value
2022-09-02T00:12:21.106Z,19.02
2022-09-02T00:27:17.342Z,19
2022-09-02T00:42:13.576Z,18.96
2022-09-02T00:57:09.409Z,18.66
2022-09-02T01:12:05.394Z,18.53
2022-09-02T01:27:00.768Z,18.06
2022-09-02T01:41:57.206Z,18
2022-09-02T01:56:53.015Z,17.69
2022-09-02T02:11:48.952Z,17.44
2022-09-02T02:26:44.599Z,16.36
2022-09-02T02:41:40.443Z,15.82
2022-09-02T02:56:36.729Z,15.53
2022-09-02T03:11:32.464Z,15.37
2022-09-02T03:26:28.639Z,15.29
2022-09-02T03:41:24.789Z,15.61
2022-09-02T03:56:21.375Z,15.18
2022-09-02T04:11:17.128Z,14.9
2022-09-02T04:26:13.126Z,14.5
2022-09-02T04:41:09.229Z,14.25
2022-09-02T04:56:05.266Z,14.28
2022-09-02T05:11:01.299Z,14.53
2022-09-02T05:25:57.747Z,15.37
2022-09-02T05:40:54.472Z,15.64
2022-09-02T05:55:50.777Z,15.72
2022-09-02T06:10:47.318Z,16.06
2022-09-02T06:25:43.780Z,16.52
2022-09-02T06:40:40.732Z,16.92
2022-09-02T06:55:36.956Z,17.85
2022-09-02T07:10:33.205Z,18.14
2022-09-02T07:25:29.953Z,18.68
2022-09-02T07:40:27.024Z,19.42
2022-09-02T07:55:23.250Z,19.85
2022-09-02T08:10:19.790Z,20.5
2022-09-02T08:25:16.454Z,22.01
2022-09-02T08:40:12.851Z,21.79
2022-09-02T08:55:09.592Z,23.3
2022-09-02T09:10:06.128Z,24.79
2022-09-02T09:25:03.152Z,24.78
2022-09-02T09:40:00.379Z,25
2022-09-02T09:54:58.359Z,25.83
2022-09-02T10:09:55.800Z,26.22
2022-09-02T10:24:52.452Z,25.94
2022-09-02T10:39:49.019Z,26.61
2022-09-02T10:54:46.031Z,25.79
2022-09-02T11:09:43.050Z,26.78
2022-09-02T11:24:41.239Z,27
2022-09-02T11:39:53.917Z,26.79
2022-09-02T11:54:32.588Z,28.19
2022-09-02T12:09:29.359Z,28.56
2022-09-02T12:24:26.371Z,28.27
2022-09-02T12:39:22.716Z,27.87
2022-09-02T12:54:18.935Z,27.75
2022-09-02T13:09:14.905Z,27.92
2022-09-02T13:24:10.523Z,27.04
2022-09-02T13:39:05.758Z,26.5
2022-09-02T13:54:25.017Z,26.77
2022-09-02T14:08:57.171Z,26.41
2022-09-02T14:23:52.899Z,26.42
2022-09-02T14:38:48.744Z,26.21
2022-09-02T14:53:44.891Z,26.37
2022-09-02T15:08:40.756Z,26.55
2022-09-02T15:23:39.166Z,26.47
2022-09-02T15:38:32.992Z,25.87
2022-09-02T15:53:29.131Z,26.21
2022-09-02T16:08:25.356Z,25.86
2022-09-02T16:23:21.597Z,26.08
2022-09-02T16:38:17.650Z,25.68
2022-09-02T16:53:14.114Z,25.62
2022-09-02T17:08:10.594Z,25.71
2022-09-02T17:23:06.818Z,26.15
2022-09-02T17:38:02.861Z,25.11
2022-09-02T17:52:58.228Z,23.85
2022-09-02T18:07:54.052Z,22.44
2022-09-02T18:22:49.242Z,21.72
2022-09-02T18:37:44.959Z,20.96
2022-09-02T18:52:40.840Z,20.36
2022-09-02T19:07:36.667Z,19.78
2022-09-02T19:22:32.959Z,18.97
2022-09-02T19:37:28.820Z,18.39
2022-09-02T19:52:24.760Z,17.87
2022-09-02T20:07:20.469Z,17.21
2022-09-02T20:22:15.851Z,16.85
2022-09-02T20:37:12.132Z,16.8
2022-09-02T20:52:08.323Z,16.96
2022-09-02T21:07:04.383Z,16.97
2022-09-02T21:22:00.505Z,17
2022-09-02T21:36:56.280Z,16.46
2022-09-02T21:51:51.860Z,16.33
2022-09-02T22:06:48.407Z,16.05
2022-09-02T22:21:43.818Z,15.83
2022-09-02T22:36:39.348Z,15.74
2022-09-02T22:51:35.706Z,15.49
2022-09-02T23:06:31.233Z,15.33
2022-09-02T23:21:27.413Z,15.12
2022-09-02T23:36:23.945Z,15.05
2022-09-02T23:51:19.988Z,14.87
